Time;durP1;ratioP1;P1;durP2;ratioP2;P2;SDS_P1;SDS_P2;PMS_P1;PMS_P2;Temp;Humidity;BMP_temperature;BMP_pressure;BME280_temperature;BME280_humidity;BME280_pressure;Samples;Min_cycle;Max_cycle;Signal;HPM_P1;HPM_P2
2023/08/26 00:01:49;;;;;;;15.82;12.30;;;17.20;99.90;;;;;;4946474;28;20031;-83
2023/08/26 00:04:15;;;;;;;15.10;12.15;;;17.10;99.90;;;;;;4949156;28;20059;-83
2023/08/26 00:06:41;;;;;;;16.33;12.68;;;17.10;99.90;;;;;;4943286;28;20065;-83
2023/08/26 00:09:06;;;;;;;14.68;11.65;;;17.10;99.90;;;;;;4942482;28;20027;-83
2023/08/26 00:11:32;;;;;;;11.90;9.85;;;17.10;99.90;;;;;;4947927;28;20038;-83
2023/08/26 00:13:58;;;;;;;10.07;8.20;;;17.10;99.90;;;;;;4966136;28;20033;-85
2023/08/26 00:16:24;;;;;;;9.98;7.53;;;17.10;99.90;;;;;;4946857;28;20503;-83
2023/08/26 00:18:50;;;;;;;8.15;6.75;;;17.20;99.90;;;;;;4965616;28;20387;-82
2023/08/26 00:21:20;;;;;;;9.68;7.13;;;17.20;99.90;;;;;;4947663;28;20035;-82
2023/08/26 00:23:47;;;;;;;8.98;6.53;;;17.30;99.90;;;;;;4953675;28;20117;-82
2023/08/26 00:26:13;;;;;;;9.63;6.93;;;17.20;99.90;;;;;;4966234;28;20385;-82
2023/08/26 00:28:39;;;;;;;9.52;7.40;;;17.20;99.90;;;;;;4943966;28;20034;-82
2023/08/26 00:31:05;;;;;;;8.98;6.93;;;17.20;99.90;;;;;;4946917;28;20058;-82
2023/08/26 00:33:31;;;;;;;10.27;8.80;;;17.20;99.90;;;;;;4966419;28;20373;-84
2023/08/26 00:35:57;;;;;;;11.55;7.82;;;17.20;99.90;;;;;;4956976;28;20390;-82
2023/08/26 00:38:23;;;;;;;14.20;10.98;;;17.20;99.90;;;;;;4964695;28;20039;-83
2023/08/26 00:40:49;;;;;;;12.60;11.23;;;17.10;99.90;;;;;;4950991;28;20029;-83
2023/08/26 00:43:15;;;;;;;15.38;11.93;;;17.00;99.90;;;;;;4966577;28;20167;-82
2023/08/26 00:45:43;;;;;;;15.10;11.82;;;16.90;99.90;;;;;;4950495;28;20032;-84
2023/08/26 00:48:11;;;;;;;14.23;9.98;;;16.90;99.90;;;;;;4965239;28;20037;-83
2023/08/26 00:50:43;;;;;;;10.52;8.60;;;16.90;99.90;;;;;;4945037;28;20440;-83
2023/08/26 00:53:11;;;;;;;10.40;7.50;;;16.80;99.90;;;;;;4963364;28;20030;-83
2023/08/26 00:55:37;;;;;;;8.52;5.88;;;16.80;99.90;;;;;;4965059;28;20023;-83
2023/08/26 00:58:05;;;;;;;5.35;4.70;;;16.90;99.90;;;;;;4964362;28;20101;-82
2023/08/26 01:00:33;;;;;;;7.90;4.43;;;16.90;99.90;;;;;;4951947;28;20035;-84
2023/08/26 01:02:59;;;;;;;5.80;4.32;;;16.90;99.90;;;;;;4951224;28;20051;-82
2023/08/26 01:05:25;;;;;;;7.55;3.67;;;16.90;99.90;;;;;;4961288;28;20030;-82
2023/08/26 01:07:52;;;;;;;9.10;4.57;;;16.90;99.90;;;;;;4946197;28;20027;-81
2023/08/26 01:10:23;;;;;;;4.35;3.65;;;16.80;99.90;;;;;;4945832;28;20443;-82
2023/08/26 01:13:03;;;;;;;3.80;3.42;;;16.80;99.90;;;;;;4952505;28;20454;-83
2023/08/26 01:15:31;;;;;;;4.85;4.00;;;16.80;99.90;;;;;;4951579;28;20113;-85
2023/08/26 01:18:00;;;;;;;4.80;3.10;;;16.80;99.90;;;;;;4945375;28;20065;-83
2023/08/26 01:20:27;;;;;;;4.80;3.50;;;16.70;99.90;;;;;;4945885;28;20376;-83
2023/08/26 01:22:55;;;;;;;4.05;3.53;;;16.70;99.90;;;;;;4959576;28;20042;-83
2023/08/26 01:25:21;;;;;;;4.88;3.88;;;16.70;99.90;;;;;;4958056;28;20118;-85
2023/08/26 01:27:49;;;;;;;4.50;3.38;;;16.70;99.90;;;;;;4966050;28;20469;-85
2023/08/26 01:30:15;;;;;;;6.55;3.78;;;16.70;99.90;;;;;;4965545;28;20545;-83
2023/08/26 01:33:03;;;;;;;8.20;6.50;;;16.60;99.90;;;;;;4945110;28;20038;-86
2023/08/26 01:35:36;;;;;;;7.22;5.55;;;16.60;99.90;;;;;;4944317;28;20027;-83
2023/08/26 01:38:02;;;;;;;10.40;5.22;;;16.60;99.90;;;;;;4977868;28;20114;-86
2023/08/26 01:40:28;;;;;;;5.38;4.40;;;16.60;99.90;;;;;;4964647;28;20031;-81
2023/08/26 01:42:55;;;;;;;6.03;4.28;;;16.60;99.90;;;;;;4951875;28;20888;-83
2023/08/26 01:45:21;;;;;;;5.50;4.28;;;16.70;99.90;;;;;;4943620;28;20034;-86
2023/08/26 01:47:48;;;;;;;7.35;4.85;;;16.70;99.90;;;;;;4944642;28;20035;-82
2023/08/26 01:50:13;;;;;;;4.90;3.80;;;16.70;99.90;;;;;;4962941;28;20407;-83
2023/08/26 01:52:41;;;;;;;9.38;6.13;;;16.60;99.90;;;;;;4941959;29;20077;-83
2023/08/26 01:55:07;;;;;;;7.15;6.13;;;16.70;99.90;;;;;;4962340;28;20547;-86
2023/08/26 01:57:33;;;;;;;7.80;6.90;;;16.70;99.90;;;;;;4942862;28;20035;-83
2023/08/26 01:59:58;;;;;;;10.77;7.93;;;16.70;99.90;;;;;;4945512;28;20026;-81
2023/08/26 02:02:24;;;;;;;11.07;8.00;;;16.50;99.90;;;;;;4942720;28;20023;-82
2023/08/26 02:04:50;;;;;;;9.68;6.82;;;16.40;99.90;;;;;;4946090;28;20093;-82
2023/08/26 02:07:16;;;;;;;13.23;9.05;;;16.40;99.90;;;;;;4966189;28;20490;-81
2023/08/26 02:09:42;;;;;;;21.70;13.25;;;16.30;99.90;;;;;;4954233;28;20039;-83
2023/08/26 02:12:08;;;;;;;9.07;8.05;;;16.20;99.90;;;;;;4947709;28;20607;-82
2023/08/26 02:14:34;;;;;;;8.57;7.65;;;16.30;99.90;;;;;;4945072;28;20024;-82
2023/08/26 02:16:59;;;;;;;10.93;8.77;;;16.20;99.90;;;;;;4944636;28;20031;-83
2023/08/26 02:19:25;;;;;;;8.77;7.15;;;16.10;99.90;;;;;;4943303;28;20105;-83
2023/08/26 02:21:52;;;;;;;6.15;4.53;;;16.10;99.90;;;;;;4945609;28;20498;-82
2023/08/26 02:24:23;;;;;;;15.55;7.88;;;16.00;99.90;;;;;;4948763;28;20031;-83
2023/08/26 02:26:48;;;;;;;8.77;6.50;;;15.80;99.90;;;;;;4960956;28;20050;-84
2023/08/26 02:29:14;;;;;;;13.55;7.55;;;15.70;99.90;;;;;;4955887;28;20394;-82
2023/08/26 02:31:40;;;;;;;10.30;6.82;;;15.60;99.90;;;;;;4956927;28;20039;-83
2023/08/26 02:34:05;;;;;;;8.50;5.75;;;15.50;99.90;;;;;;4962643;28;20031;-83
2023/08/26 02:36:31;;;;;;;8.05;4.85;;;15.50;99.90;;;;;;4940764;28;20432;-82
2023/08/26 02:38:57;;;;;;;5.10;2.88;;;15.60;99.90;;;;;;4945212;28;20065;-83
2023/08/26 02:41:22;;;;;;;9.88;6.25;;;15.60;99.90;;;;;;4962058;28;20025;-81
2023/08/26 02:43:49;;;;;;;9.80;5.20;;;15.50;99.90;;;;;;4943750;28;20391;-82
2023/08/26 02:46:16;;;;;;;9.50;5.72;;;15.50;99.90;;;;;;4959348;28;20022;-84
2023/08/26 02:48:41;;;;;;;11.38;6.65;;;15.40;99.90;;;;;;4942643;29;20054;-82
2023/08/26 02:51:07;;;;;;;10.68;5.40;;;15.30;99.90;;;;;;4949637;28;20039;-83
2023/08/26 02:53:33;;;;;;;9.50;6.70;;;15.40;99.90;;;;;;4960047;28;20468;-81
2023/08/26 02:55:59;;;;;;;8.07;4.55;;;15.20;99.90;;;;;;4949859;28;20039;-82
2023/08/26 02:58:26;;;;;;;9.98;5.72;;;15.30;99.90;;;;;;4950864;28;20027;-82
2023/08/26 03:00:55;;;;;;;6.55;4.80;;;15.20;99.90;;;;;;4946065;28;20027;-85
2023/08/26 03:03:21;;;;;;;6.93;4.43;;;15.20;99.90;;;;;;4958503;28;20616;-82
2023/08/26 03:05:46;;;;;;;3.42;2.25;;;15.20;99.90;;;;;;4941843;28;20269;-82
2023/08/26 03:08:12;;;;;;;6.25;3.65;;;15.20;99.90;;;;;;4958852;28;20029;-85
2023/08/26 03:10:38;;;;;;;9.48;4.75;;;15.20;99.90;;;;;;4965450;28;20503;-84
2023/08/26 03:13:07;;;;;;;8.75;4.18;;;15.20;99.90;;;;;;4943648;28;20035;-83
2023/08/26 03:15:32;;;;;;;8.40;3.50;;;15.10;99.90;;;;;;4959946;28;20030;-83
2023/08/26 03:17:58;;;;;;;6.82;3.88;;;15.10;99.90;;;;;;4945516;28;20430;-81
2023/08/26 03:20:24;;;;;;;6.22;3.63;;;14.90;99.90;;;;;;4942984;28;20039;-82
2023/08/26 03:22:50;;;;;;;5.15;3.63;;;14.90;99.90;;;;;;4957778;28;20122;-82
2023/08/26 03:25:17;;;;;;;7.15;3.35;;;14.90;99.90;;;;;;4946172;28;20361;-82
2023/08/26 03:27:43;;;;;;;5.55;2.13;;;14.90;99.90;;;;;;4966435;28;20027;-83
2023/08/26 03:30:09;;;;;;;5.55;3.42;;;14.80;99.90;;;;;;4948962;28;20019;-82
2023/08/26 03:32:35;;;;;;;4.50;1.98;;;14.70;99.90;;;;;;4945534;28;20070;-83
2023/08/26 03:35:01;;;;;;;3.83;1.52;;;14.70;99.90;;;;;;4961120;28;20065;-83
2023/08/26 03:37:26;;;;;;;3.05;1.27;;;14.70;99.90;;;;;;4941525;28;20085;-82
2023/08/26 03:39:52;;;;;;;2.90;0.75;;;14.70;99.90;;;;;;4954538;28;20054;-84
2023/08/26 03:42:18;;;;;;;3.08;1.13;;;14.70;99.90;;;;;;4944379;28;20502;-83
2023/08/26 03:44:44;;;;;;;4.93;0.90;;;14.50;99.90;;;;;;4947352;28;20035;-87
2023/08/26 03:47:10;;;;;;;3.67;1.00;;;14.50;99.90;;;;;;4947723;28;20044;-81
2023/08/26 03:49:35;;;;;;;3.20;0.90;;;14.50;99.90;;;;;;4944699;28;20035;-83
2023/08/26 03:52:03;;;;;;;3.40;0.80;;;14.40;99.90;;;;;;4962235;28;20427;-86
2023/08/26 03:54:29;;;;;;;1.65;0.60;;;14.40;99.90;;;;;;4964042;28;20030;-85
2023/08/26 03:56:55;;;;;;;5.75;1.00;;;14.40;99.90;;;;;;4949825;28;20058;-83
2023/08/26 03:59:21;;;;;;;2.63;0.52;;;14.30;99.90;;;;;;4963793;28;20023;-82
2023/08/26 04:01:47;;;;;;;1.77;0.50;;;14.30;99.90;;;;;;4956976;28;20046;-83
2023/08/26 04:04:15;;;;;;;2.00;0.50;;;14.30;99.90;;;;;;4943507;28;20079;-82
2023/08/26 04:06:40;;;;;;;2.25;0.50;;;14.30;99.90;;;;;;4964044;28;20031;-83
2023/08/26 04:09:06;;;;;;;1.55;0.50;;;14.30;99.90;;;;;;4945012;28;20034;-82
2023/08/26 04:11:32;;;;;;;3.72;0.50;;;14.20;99.90;;;;;;4958009;28;20031;-83
2023/08/26 04:13:58;;;;;;;3.03;0.63;;;14.20;99.90;;;;;;4947602;28;20028;-82
2023/08/26 04:16:24;;;;;;;2.95;0.50;;;14.10;99.90;;;;;;4946393;28;20039;-86
2023/08/26 04:18:50;;;;;;;3.53;0.77;;;14.10;99.90;;;;;;4943124;28;20093;-82
2023/08/26 04:21:16;;;;;;;1.52;0.60;;;14.10;99.90;;;;;;4940150;28;20034;-82
2023/08/26 04:23:41;;;;;;;3.35;0.70;;;14.00;99.90;;;;;;4943971;28;20475;-81
2023/08/26 04:26:07;;;;;;;2.67;0.70;;;14.00;99.90;;;;;;4942622;28;20041;-81
2023/08/26 04:28:33;;;;;;;1.08;0.55;;;14.00;99.90;;;;;;4942305;28;20031;-82
2023/08/26 04:30:59;;;;;;;2.17;0.60;;;14.00;99.90;;;;;;4946051;28;20043;-82
2023/08/26 04:33:25;;;;;;;1.42;0.40;;;13.90;99.90;;;;;;4956454;28;20031;-82
2023/08/26 04:35:50;;;;;;;2.30;0.60;;;13.90;99.90;;;;;;4945247;28;20026;-82
2023/08/26 04:38:16;;;;;;;2.10;0.70;;;13.90;99.90;;;;;;4956020;28;20235;-83
2023/08/26 04:40:42;;;;;;;2.85;0.63;;;13.80;99.90;;;;;;4943541;28;20455;-82
2023/08/26 04:43:10;;;;;;;3.22;0.60;;;13.80;99.90;;;;;;4941632;28;20455;-82
2023/08/26 04:45:40;;;;;;;2.55;0.50;;;13.80;99.90;;;;;;4959264;28;20036;-82
2023/08/26 04:48:07;;;;;;;1.73;0.50;;;13.80;99.90;;;;;;4959639;28;20019;-84
2023/08/26 04:50:34;;;;;;;1.80;0.40;;;13.70;99.90;;;;;;4939847;28;20058;-83
2023/08/26 04:53:00;;;;;;;2.05;0.60;;;13.70;99.90;;;;;;4948225;28;20039;-81
2023/08/26 04:55:26;;;;;;;3.03;0.73;;;13.70;99.90;;;;;;4947066;28;20542;-82
2023/08/26 04:57:53;;;;;;;2.97;0.63;;;13.60;99.90;;;;;;4943329;28;20124;-81
2023/08/26 05:00:18;;;;;;;2.15;0.50;;;13.50;99.90;;;;;;4966299;28;20023;-82
2023/08/26 05:02:44;;;;;;;2.08;0.70;;;13.60;99.90;;;;;;4958860;28;20024;-82
2023/08/26 05:05:10;;;;;;;2.28;0.60;;;13.50;99.90;;;;;;4960989;28;20031;-83
2023/08/26 05:07:36;;;;;;;1.27;0.63;;;13.60;99.90;;;;;;4946126;28;20039;-82
2023/08/26 05:10:07;;;;;;;2.70;0.60;;;13.60;99.90;;;;;;4949840;28;20028;-87
2023/08/26 05:12:33;;;;;;;2.92;0.60;;;13.50;99.90;;;;;;4957257;28;20215;-82
2023/08/26 05:14:59;;;;;;;1.92;0.50;;;13.50;99.90;;;;;;4943164;28;20464;-83
2023/08/26 05:17:25;;;;;;;3.20;0.73;;;13.50;99.90;;;;;;4963246;28;20045;-85
2023/08/26 05:19:51;;;;;;;1.88;0.40;;;13.60;99.90;;;;;;4944850;29;20019;-84
2023/08/26 05:22:17;;;;;;;1.50;0.40;;;13.60;99.90;;;;;;4960483;28;20046;-84
2023/08/26 05:24:43;;;;;;;2.33;0.50;;;13.60;99.90;;;;;;4960519;28;20472;-81
2023/08/26 05:27:09;;;;;;;2.38;0.50;;;13.60;99.90;;;;;;4961151;28;20499;-83
2023/08/26 05:29:36;;;;;;;2.30;0.60;;;13.60;99.90;;;;;;4948015;28;20023;-83
2023/08/26 05:32:01;;;;;;;1.52;0.30;;;13.60;99.90;;;;;;4963026;28;20500;-82
2023/08/26 05:34:28;;;;;;;2.50;0.40;;;13.70;99.90;;;;;;4956579;28;20028;-83
2023/08/26 05:36:53;;;;;;;2.05;0.32;;;13.70;99.90;;;;;;4942568;28;20042;-82
2023/08/26 05:39:19;;;;;;;2.00;0.60;;;13.60;99.90;;;;;;4949125;28;20027;-84
2023/08/26 05:41:45;;;;;;;3.80;0.43;;;13.60;99.90;;;;;;4943955;28;20392;-84
2023/08/26 05:44:11;;;;;;;2.97;0.68;;;13.70;99.90;;;;;;4948173;28;20068;-83
2023/08/26 05:46:37;;;;;;;2.38;0.50;;;13.60;99.90;;;;;;4944324;28;20325;-83
2023/08/26 05:49:03;;;;;;;4.72;0.70;;;13.60;99.90;;;;;;4949257;28;20055;-85
2023/08/26 05:51:29;;;;;;;2.85;0.50;;;13.60;99.90;;;;;;4951730;28;20486;-86
2023/08/26 05:53:55;;;;;;;2.95;0.40;;;13.70;99.90;;;;;;4964714;28;20131;-85
2023/08/26 05:56:21;;;;;;;2.63;0.63;;;13.70;99.90;;;;;;4959573;28;20051;-84
2023/08/26 05:58:47;;;;;;;1.70;0.55;;;13.70;99.90;;;;;;4958312;28;20034;-84
2023/08/26 06:01:13;;;;;;;2.40;0.50;;;13.70;99.90;;;;;;4962453;28;20031;-83
2023/08/26 06:03:39;;;;;;;1.92;0.45;;;13.80;99.90;;;;;;4948174;28;20051;-89
2023/08/26 06:06:05;;;;;;;1.80;0.63;;;13.80;99.90;;;;;;4950328;28;20034;-83
2023/08/26 06:08:31;;;;;;;1.92;0.60;;;13.80;99.90;;;;;;4965102;28;20026;-83
2023/08/26 06:10:58;;;;;;;1.85;0.52;;;13.80;99.90;;;;;;4951411;28;20046;-85
2023/08/26 06:13:24;;;;;;;3.05;0.60;;;13.90;99.90;;;;;;4949277;28;20110;-84
2023/08/26 06:15:54;;;;;;;2.03;0.50;;;13.90;99.90;;;;;;4968125;28;20031;-86
2023/08/26 06:18:19;;;;;;;;;;;14.00;99.90;;;;;;4973581;28;20026;-84
2023/08/26 06:20:46;;;;;;;1.30;0.50;;;14.00;99.90;;;;;;4944185;28;19914;-83
2023/08/26 06:23:12;;;;;;;2.80;0.57;;;14.10;99.90;;;;;;4950210;28;20079;-86
2023/08/26 06:25:37;;;;;;;2.05;0.90;;;14.20;99.90;;;;;;4945099;28;20376;-84
2023/08/26 06:28:04;;;;;;;3.22;0.82;;;14.30;99.90;;;;;;4944992;28;20027;-84
2023/08/26 06:30:30;;;;;;;1.75;0.70;;;14.40;99.90;;;;;;4947228;28;20118;-86
2023/08/26 06:32:56;;;;;;;2.85;0.77;;;14.40;99.90;;;;;;4964391;28;20178;-83
2023/08/26 06:35:26;;;;;;;1.30;0.63;;;14.50;99.90;;;;;;4943383;28;20454;-83
2023/08/26 06:37:52;;;;;;;2.58;0.65;;;14.70;99.90;;;;;;4945564;28;20030;-83
2023/08/26 06:40:18;;;;;;;1.70;0.90;;;14.80;99.90;;;;;;4943101;28;20031;-84
2023/08/26 06:42:43;;;;;;;2.53;0.70;;;14.90;99.90;;;;;;4945318;28;20066;-86
2023/08/26 06:45:15;;;;;;;1.60;0.90;;;15.00;99.90;;;;;;4965142;28;20046;-83
2023/08/26 06:47:43;;;;;;;1.80;0.77;;;15.20;99.90;;;;;;4960660;28;20027;-83
2023/08/26 06:50:09;;;;;;;2.78;0.70;;;15.20;99.90;;;;;;4942838;28;20583;-83
2023/08/26 06:52:34;;;;;;;1.75;0.70;;;15.40;99.90;;;;;;4958412;28;20039;-82
2023/08/26 06:55:00;;;;;;;2.80;0.60;;;15.50;99.90;;;;;;4963872;28;20031;-83
2023/08/26 06:57:26;;;;;;;3.00;0.73;;;15.60;99.90;;;;;;4966300;28;20057;-85
2023/08/26 06:59:51;;;;;;;4.45;0.73;;;15.70;99.90;;;;;;4947736;28;20027;-82
2023/08/26 07:02:17;;;;;;;2.67;0.60;;;15.90;99.90;;;;;;4965154;28;20158;-84
2023/08/26 07:04:44;;;;;;;3.83;0.70;;;16.00;99.90;;;;;;4955346;28;20074;-84
2023/08/26 07:07:12;;;;;;;2.38;0.50;;;16.10;99.90;;;;;;4943272;28;20035;-82
2023/08/26 07:09:37;;;;;;;3.40;0.98;;;16.20;99.90;;;;;;4943365;28;20027;-84
2023/08/26 07:12:04;;;;;;;2.65;0.73;;;16.30;99.90;;;;;;4950340;28;20053;-86
2023/08/26 07:14:29;;;;;;;3.92;0.65;;;16.20;99.90;;;;;;4960396;28;20019;-84
2023/08/26 07:16:55;;;;;;;3.00;0.65;;;16.50;99.90;;;;;;4944114;28;20381;-83
2023/08/26 07:19:21;;;;;;;1.25;0.40;;;16.60;99.90;;;;;;4941302;28;20086;-84
2023/08/26 07:21:47;;;;;;;1.83;0.50;;;16.60;99.90;;;;;;4960368;28;20038;-83
2023/08/26 07:24:14;;;;;;;2.80;0.50;;;16.80;99.90;;;;;;4956368;28;20126;-85
2023/08/26 07:26:40;;;;;;;3.15;0.50;;;17.10;99.90;;;;;;4948707;28;20428;-84
2023/08/26 07:29:06;;;;;;;1.35;0.40;;;17.00;99.90;;;;;;4942182;28;20109;-82
2023/08/26 07:31:32;;;;;;;5.05;0.60;;;17.40;99.90;;;;;;4960859;28;20043;-83
2023/08/26 07:33:58;;;;;;;2.70;0.50;;;17.30;99.90;;;;;;4958103;28;20475;-84
2023/08/26 07:36:29;;;;;;;1.85;0.40;;;17.30;99.90;;;;;;4963824;28;20027;-88
2023/08/26 07:38:55;;;;;;;2.75;0.50;;;17.50;99.90;;;;;;4962190;28;20183;-83
2023/08/26 07:41:20;;;;;;;2.22;0.50;;;17.50;99.90;;;;;;4942744;28;20028;-83
2023/08/26 07:43:47;;;;;;;1.52;0.43;;;17.80;99.90;;;;;;4961716;28;20085;-82
2023/08/26 07:46:14;;;;;;;2.83;0.40;;;17.80;99.90;;;;;;4956903;28;20419;-82
2023/08/26 07:48:40;;;;;;;3.42;0.50;;;17.80;99.90;;;;;;4945661;28;20033;-82
2023/08/26 07:51:06;;;;;;;2.80;0.50;;;18.00;99.90;;;;;;4962432;28;20406;-84
2023/08/26 07:53:31;;;;;;;1.48;0.30;;;18.00;99.90;;;;;;4953937;28;20073;-82
2023/08/26 07:55:57;;;;;;;2.05;0.50;;;18.20;99.90;;;;;;4954986;28;20028;-81
2023/08/26 07:58:23;;;;;;;4.15;0.50;;;18.20;99.90;;;;;;4960291;28;20451;-82
2023/08/26 08:00:48;;;;;;;2.55;0.50;;;18.20;99.90;;;;;;4942076;28;20027;-82
2023/08/26 08:03:14;;;;;;;4.03;0.50;;;18.30;99.90;;;;;;4959708;28;20046;-81
2023/08/26 08:05:40;;;;;;;2.83;0.80;;;18.50;99.90;;;;;;4949023;28;20137;-83
2023/08/26 08:08:05;;;;;;;2.55;0.50;;;18.60;99.90;;;;;;4961790;28;20027;-81
2023/08/26 08:10:31;;;;;;;3.38;0.50;;;18.50;99.90;;;;;;4957034;28;20038;-82
2023/08/26 08:12:57;;;;;;;3.38;0.50;;;18.40;99.90;;;;;;4953337;28;20043;-82
2023/08/26 08:15:22;;;;;;;2.53;0.50;;;18.50;99.90;;;;;;4959973;28;20435;-82
2023/08/26 08:17:48;;;;;;;1.90;0.40;;;18.60;99.90;;;;;;4962761;28;20030;-82
2023/08/26 08:20:14;;;;;;;2.83;0.50;;;18.80;99.90;;;;;;4963102;28;20367;-81
2023/08/26 08:22:43;;;;;;;3.95;0.60;;;19.00;99.90;;;;;;4946916;28;20027;-83
2023/08/26 08:25:09;;;;;;;2.58;0.50;;;19.10;99.90;;;;;;4959192;28;20058;-82
2023/08/26 08:27:37;;;;;;;3.70;0.60;;;19.20;99.90;;;;;;4942933;28;20030;-84
2023/08/26 08:30:04;;;;;;;3.35;0.55;;;19.20;99.90;;;;;;4956223;28;20380;-83
2023/08/26 08:32:30;;;;;;;2.63;0.60;;;19.50;99.90;;;;;;4945553;28;20035;-81
2023/08/26 08:34:55;;;;;;;3.47;0.50;;;19.50;99.90;;;;;;4960844;28;20039;-82
2023/08/26 08:37:21;;;;;;;1.80;0.40;;;19.40;99.90;;;;;;4960646;28;20027;-82
2023/08/26 08:39:47;;;;;;;2.45;0.40;;;19.50;99.90;;;;;;4958428;28;20391;-81
2023/08/26 08:42:15;;;;;;;3.83;0.73;;;19.80;99.90;;;;;;4962742;28;20423;-82
2023/08/26 08:44:42;;;;;;;3.47;0.47;;;19.20;99.90;;;;;;4958695;28;20487;-82
2023/08/26 08:47:09;;;;;;;2.03;0.30;;;19.60;99.90;;;;;;4944795;28;20043;-85
2023/08/26 08:49:36;;;;;;;1.58;0.50;;;19.70;99.90;;;;;;4959806;28;20476;-82
2023/08/26 08:52:05;;;;;;;4.05;0.50;;;18.90;99.90;;;;;;4964181;28;20046;-82
2023/08/26 08:54:32;;;;;;;3.50;0.40;;;18.50;99.90;;;;;;4966016;28;20146;-84
2023/08/26 08:56:58;;;;;;;1.88;0.45;;;18.20;99.90;;;;;;4957947;28;20058;-82
2023/08/26 08:59:29;;;;;;;1.75;0.20;;;18.90;99.90;;;;;;4961719;28;20484;-83
2023/08/26 09:01:57;;;;;;;1.05;0.28;;;19.70;99.90;;;;;;4961432;28;20062;-82
2023/08/26 09:04:24;;;;;;;0.95;0.30;;;20.20;99.90;;;;;;4941985;28;20082;-82
2023/08/26 09:06:50;;;;;;;1.55;0.30;;;20.40;99.90;;;;;;4958732;28;20487;-82
2023/08/26 09:09:16;;;;;;;1.38;0.30;;;20.40;99.90;;;;;;4956959;28;20027;-81
2023/08/26 09:11:43;;;;;;;1.80;0.20;;;20.50;99.90;;;;;;4958776;28;20031;-82
2023/08/26 09:14:08;;;;;;;3.42;0.38;;;20.20;99.90;;;;;;4959715;28;20125;-80
2023/08/26 09:16:39;;;;;;;3.63;0.35;;;19.90;99.90;;;;;;4964466;28;20058;-82
2023/08/26 09:19:12;;;;;;;2.42;0.40;;;20.10;99.90;;;;;;4959527;28;20035;-83
2023/08/26 09:21:43;;;;;;;2.25;0.30;;;19.50;99.90;;;;;;4940792;28;20026;-81
2023/08/26 09:24:16;;;;;;;2.38;0.20;;;19.90;99.90;;;;;;4941755;28;20050;-81
2023/08/26 09:26:43;;;;;;;1.77;0.20;;;20.70;99.90;;;;;;4959722;28;20494;-82
2023/08/26 09:29:20;;;;;;;3.03;0.40;;;20.70;99.90;;;;;;4971343;28;20030;-82
2023/08/26 09:31:52;;;;;;;1.27;0.28;;;20.10;99.90;;;;;;4958165;28;20128;-83
2023/08/26 09:34:28;;;;;;;2.45;0.30;;;20.80;99.90;;;;;;4965528;28;20062;-82
2023/08/26 09:36:54;;;;;;;1.05;0.20;;;21.10;99.90;;;;;;4958125;28;20031;-80
2023/08/26 09:39:21;;;;;;;1.90;0.20;;;21.50;99.90;;;;;;4946803;28;20037;-82
2023/08/26 09:41:48;;;;;;;1.98;0.20;;;21.50;99.90;;;;;;4957354;28;20501;-82
2023/08/26 09:44:16;;;;;;;2.05;0.20;;;21.40;99.90;;;;;;4946125;28;20050;-84
2023/08/26 09:46:42;;;;;;;1.80;0.30;;;21.90;99.90;;;;;;4957219;28;20054;-82
2023/08/26 09:49:13;;;;;;;1.52;0.20;;;21.20;99.90;;;;;;4955456;28;22714;-80
2023/08/26 09:51:48;;;;;;;1.98;0.20;;;21.60;99.90;;;;;;4945271;28;20039;-80
2023/08/26 09:54:21;;;;;;;3.58;0.30;;;21.90;99.90;;;;;;4956468;28;20033;-82
2023/08/26 09:56:48;;;;;;;2.15;0.20;;;21.80;99.90;;;;;;4963981;28;20031;-82
2023/08/26 09:59:15;;;;;;;1.30;0.17;;;22.20;99.90;;;;;;4961646;28;20019;-84
2023/08/26 10:01:42;;;;;;;1.75;0.20;;;21.90;99.90;;;;;;4956574;28;20019;-82
2023/08/26 10:04:09;;;;;;;1.42;0.20;;;21.80;99.90;;;;;;4958885;28;20415;-81
2023/08/26 10:06:55;;;;;;;1.42;0.20;;;21.30;99.90;;;;;;4948525;28;20361;-81
2023/08/26 10:09:39;;;;;;;1.02;0.20;;;21.80;99.90;;;;;;4941848;28;20027;-81
2023/08/26 10:12:15;;;;;;;1.00;0.17;;;22.00;99.90;;;;;;4956012;28;20035;-84
2023/08/26 10:14:42;;;;;;;0.85;0.20;;;21.70;99.90;;;;;;4958512;28;20031;-82
2023/08/26 10:17:14;;;;;;;0.93;0.10;;;20.80;99.90;;;;;;4946688;28;20034;-82
2023/08/26 10:19:41;;;;;;;1.08;0.20;;;20.60;99.90;;;;;;4946505;28;20034;-82
2023/08/26 10:22:09;;;;;;;2.00;0.17;;;20.40;99.90;;;;;;4947081;28;20027;-81
2023/08/26 10:24:37;;;;;;;1.25;0.10;;;20.50;99.90;;;;;;4961465;28;20059;-81
2023/08/26 10:27:05;;;;;;;1.25;0.20;;;20.70;99.90;;;;;;4946247;28;20035;-81
2023/08/26 10:29:31;;;;;;;1.48;0.10;;;20.60;99.90;;;;;;4957791;28;20034;-82
2023/08/26 10:32:13;;;;;;;1.67;0.20;;;20.90;99.90;;;;;;4957102;28;20039;-81
2023/08/26 10:34:53;;;;;;;6.95;0.60;;;21.50;99.90;;;;;;4957277;28;20477;-84
2023/08/26 10:37:19;;;;;;;4.03;0.30;;;21.30;99.90;;;;;;4957293;28;20487;-80
2023/08/26 10:39:45;;;;;;;1.63;0.20;;;20.70;99.90;;;;;;4958888;28;20058;-81
2023/08/26 10:42:18;;;;;;;2.75;0.20;;;21.00;99.90;;;;;;4942705;28;20061;-81
2023/08/26 10:44:59;;;;;;;1.52;0.20;;;20.90;99.90;;;;;;4956734;28;20558;-82
2023/08/26 10:47:51;;;;;;;0.90;0.20;;;21.80;99.90;;;;;;4958607;28;20069;-82
2023/08/26 10:50:19;;;;;;;1.20;0.20;;;22.00;99.90;;;;;;4964119;28;20050;-82
2023/08/26 10:52:48;;;;;;;1.75;0.20;;;21.40;99.90;;;;;;4959443;28;20867;-81
2023/08/26 10:55:25;;;;;;;0.77;0.13;;;20.60;99.90;;;;;;4947685;28;20183;-83
2023/08/26 10:58:17;;;;;;;1.38;0.20;;;20.80;99.90;;;;;;4956826;28;20047;-81
2023/08/26 11:00:44;;;;;;;1.15;0.10;;;21.10;99.90;;;;;;4957948;28;20376;-82
2023/08/26 11:03:11;;;;;;;0.85;0.22;;;21.60;99.90;;;;;;4954457;28;20514;-81
2023/08/26 11:05:39;;;;;;;1.42;0.20;;;22.00;99.90;;;;;;4943898;28;20060;-82
2023/08/26 11:08:05;;;;;;;1.40;0.10;;;21.40;99.90;;;;;;4958395;28;20035;-81
2023/08/26 11:10:39;;;;;;;0.80;0.10;;;20.70;99.90;;;;;;4942837;28;20046;-82
2023/08/26 11:13:06;;;;;;;0.70;0.10;;;20.70;99.90;;;;;;4939130;28;20065;-82
2023/08/26 11:15:36;;;;;;;1.48;0.15;;;21.30;99.90;;;;;;4954755;28;20023;-82
2023/08/26 11:18:01;;;;;;;;;;;21.30;99.90;;;;;;4954138;28;20026;-82
2023/08/26 11:20:28;;;;;;;1.75;0.10;;;21.40;99.90;;;;;;4962766;28;20363;-82
2023/08/26 11:22:54;;;;;;;1.42;0.20;;;21.20;99.90;;;;;;4957390;28;20395;-81
2023/08/26 11:25:20;;;;;;;1.13;0.20;;;21.40;99.90;;;;;;4954360;28;20027;-83
2023/08/26 11:27:46;;;;;;;1.20;0.10;;;21.30;99.90;;;;;;4961920;28;20615;-82
2023/08/26 11:30:12;;;;;;;1.67;0.10;;;21.90;99.90;;;;;;4964745;28;20037;-81
2023/08/26 11:32:39;;;;;;;0.93;0.20;;;22.00;99.90;;;;;;4953763;28;20181;-80
2023/08/26 11:35:06;;;;;;;1.40;0.47;;;22.20;99.90;;;;;;4953607;28;20535;-81
2023/08/26 11:37:42;;;;;;;1.00;0.20;;;22.80;99.90;;;;;;4958967;28;20072;-82
2023/08/26 11:40:09;;;;;;;0.63;0.10;;;22.20;99.90;;;;;;4942673;28;20086;-83
2023/08/26 11:42:35;;;;;;;0.60;0.10;;;22.20;99.90;;;;;;4945888;28;20114;-81
2023/08/26 11:45:01;;;;;;;0.63;0.10;;;22.20;99.90;;;;;;4945435;28;20026;-82
2023/08/26 11:47:27;;;;;;;1.10;0.10;;;21.80;99.90;;;;;;4961849;28;20142;-81
2023/08/26 11:49:56;;;;;;;1.73;0.10;;;22.10;99.90;;;;;;4955256;28;20034;-83
2023/08/26 11:52:30;;;;;;;0.40;0.10;;;21.80;99.90;;;;;;4940568;28;20069;-83
2023/08/26 11:54:55;;;;;;;1.38;0.10;;;22.20;99.90;;;;;;4942754;28;20038;-85
2023/08/26 11:57:23;;;;;;;1.08;0.17;;;21.50;99.90;;;;;;4954980;28;20413;-82
2023/08/26 11:59:49;;;;;;;0.68;0.10;;;21.50;99.90;;;;;;4953381;28;20027;-83
2023/08/26 12:02:22;;;;;;;1.23;0.10;;;21.70;99.90;;;;;;4943461;28;20392;-83
2023/08/26 12:04:56;;;;;;;1.00;0.10;;;21.80;99.90;;;;;;4954067;28;20043;-82
2023/08/26 12:07:22;;;;;;;1.30;0.10;;;22.10;99.90;;;;;;4960184;28;20158;-83
2023/08/26 12:09:49;;;;;;;0.55;0.10;;;21.60;99.90;;;;;;4945333;28;20114;-83
2023/08/26 12:12:20;;;;;;;1.20;0.10;;;21.60;99.90;;;;;;4958692;28;20039;-84
2023/08/26 12:14:46;;;;;;;1.23;0.15;;;21.60;99.90;;;;;;4957055;28;20038;-84
2023/08/26 12:17:12;;;;;;;0.88;0.00;;;22.00;99.90;;;;;;4950224;28;20130;-84
2023/08/26 12:19:40;;;;;;;0.40;0.10;;;21.20;99.90;;;;;;4958431;28;20387;-83
2023/08/26 12:22:07;;;;;;;0.73;0.10;;;21.20;99.90;;;;;;4960543;28;20394;-83
2023/08/26 12:24:34;;;;;;;1.02;0.10;;;21.10;99.90;;;;;;4975262;28;20035;-84
2023/08/26 12:27:10;;;;;;;0.30;0.00;;;21.60;99.90;;;;;;4955673;28;20027;-84
2023/08/26 12:29:39;;;;;;;0.40;0.10;;;21.70;99.90;;;;;;4949412;28;20034;-84
2023/08/26 12:32:05;;;;;;;1.00;0.17;;;21.60;99.90;;;;;;4959608;28;20039;-84
2023/08/26 12:34:32;;;;;;;0.32;0.10;;;21.10;99.90;;;;;;4960540;28;20042;-84
2023/08/26 12:36:58;;;;;;;1.55;0.10;;;21.60;99.90;;;;;;4964048;28;20035;-83
2023/08/26 12:39:27;;;;;;;0.20;0.10;;;22.30;99.90;;;;;;4960776;28;20050;-84
2023/08/26 12:41:56;;;;;;;1.15;0.10;;;22.20;99.90;;;;;;4962223;28;20484;-84
2023/08/26 12:44:24;;;;;;;0.70;0.10;;;22.30;99.90;;;;;;4948002;28;20073;-84
2023/08/26 12:46:50;;;;;;;1.08;0.10;;;22.30;99.90;;;;;;4969009;28;20042;-84